sensor_id;sensor_type;location;lat;lon;timestamp;temperature;humidity
31597;DHT22;18201;50.978;7.034;2023-04-28T00:00:05;12.20;1.00
31597;DHT22;18201;50.978;7.034;2023-04-28T00:00:36;12.20;99.90
31597;DHT22;18201;50.978;7.034;2023-04-28T00:01:08;12.20;99.90
31597;DHT22;18201;50.978;7.034;2023-04-28T00:01:38;12.20;99.90
31597;DHT22;18201;50.978;7.034;2023-04-28T00:02:09;12.20;1.00
31597;DHT22;18201;50.978;7.034;2023-04-28T00:02:41;12.20;99.90
31597;DHT22;18201;50.978;7.034;2023-04-28T00:03:12;12.10;99.90
31597;DHT22;18201;50.978;7.034;2023-04-28T00:03:43;12.10;1.00
31597;DHT22;18201;50.978;7.034;2023-04-28T00:04:15;12.10;98.90
31597;DHT22;18201;50.978;7.034;2023-04-28T00:04:46;12.10;99.90
31597;DHT22;18201;50.978;7.034;2023-04-28T00:05:17;12.10;1.00
31597;DHT22;18201;50.978;7.034;2023-04-28T00:05:48;12.10;99.90
31597;DHT22;18201;50.978;7.034;2023-04-28T00:06:19;12.10;99.90
31597;DHT22;18201;50.978;7.034;2023-04-28T00:06:50;12.10;99.90
31597;DHT22;18201;50.978;7.034;2023-04-28T00:07:21;12.00;99.90
31597;DHT22;18201;50.978;7.034;2023-04-28T00:07:52;12.10;1.00
31597;DHT22;18201;50.978;7.034;2023-04-28T00:08:24;12.10;99.90
31597;DHT22;18201;50.978;7.034;2023-04-28T00:08:58;12.00;99.90
31597;DHT22;18201;50.978;7.034;2023-04-28T00:09:29;12.00;99.90
31597;DHT22;18201;50.978;7.034;2023-04-28T00:10:00;12.00;1.00
31597;DHT22;18201;50.978;7.034;2023-04-28T00:10:31;12.00;99.90
31597;DHT22;18201;50.978;7.034;2023-04-28T00:11:02;12.00;99.90
31597;DHT22;18201;50.978;7.034;2023-04-28T00:11:34;12.00;99.90
31597;DHT22;18201;50.978;7.034;2023-04-28T00:12:05;12.00;99.90
31597;DHT22;18201;50.978;7.034;2023-04-28T00:12:36;12.00;99.90
31597;DHT22;18201;50.978;7.034;2023-04-28T00:13:07;12.00;99.90
31597;DHT22;18201;50.978;7.034;2023-04-28T00:13:40;12.00;99.90
31597;DHT22;18201;50.978;7.034;2023-04-28T00:14:11;12.00;1.00
31597;DHT22;18201;50.978;7.034;2023-04-28T00:14:42;12.00;99.90
31597;DHT22;18201;50.978;7.034;2023-04-28T00:15:14;12.00;99.90
31597;DHT22;18201;50.978;7.034;2023-04-28T00:15:45;12.00;98.70
31597;DHT22;18201;50.978;7.034;2023-04-28T00:16:16;12.00;99.90
31597;DHT22;18201;50.978;7.034;2023-04-28T00:16:48;12.00;99.90
31597;DHT22;18201;50.978;7.034;2023-04-28T00:17:19;12.00;13.30
31597;DHT22;18201;50.978;7.034;2023-04-28T00:17:50;12.00;99.90
31597;DHT22;18201;50.978;7.034;2023-04-28T00:18:21;12.00;99.90
31597;DHT22;18201;50.978;7.034;2023-04-28T00:18:53;12.00;99.90
31597;DHT22;18201;50.978;7.034;2023-04-28T00:19:24;12.00;99.90
31597;DHT22;18201;50.978;7.034;2023-04-28T00:19:55;11.90;40.90
31597;DHT22;18201;50.978;7.034;2023-04-28T00:20:27;12.00;84.90
31597;DHT22;18201;50.978;7.034;2023-04-28T00:20:58;12.00;99.90
31597;DHT22;18201;50.978;7.034;2023-04-28T00:21:29;12.00;99.90
31597;DHT22;18201;50.978;7.034;2023-04-28T00:22:02;12.00;99.90
31597;DHT22;18201;50.978;7.034;2023-04-28T00:22:34;12.00;99.90
31597;DHT22;18201;50.978;7.034;2023-04-28T00:23:05;12.00;99.90
31597;DHT22;18201;50.978;7.034;2023-04-28T00:23:37;12.00;1.00
31597;DHT22;18201;50.978;7.034;2023-04-28T00:24:09;12.00;99.90
31597;DHT22;18201;50.978;7.034;2023-04-28T00:24:40;12.00;99.90
31597;DHT22;18201;50.978;7.034;2023-04-28T00:25:11;12.00;44.30
31597;DHT22;18201;50.978;7.034;2023-04-28T00:25:43;12.00;17.40
31597;DHT22;18201;50.978;7.034;2023-04-28T00:26:14;12.00;1.00
31597;DHT22;18201;50.978;7.034;2023-04-28T00:26:45;12.00;1.00
31597;DHT22;18201;50.978;7.034;2023-04-28T00:27:17;12.00;99.90
31597;DHT22;18201;50.978;7.034;2023-04-28T00:27:48;12.00;99.90
31597;DHT22;18201;50.978;7.034;2023-04-28T00:28:18;12.00;1.00
31597;DHT22;18201;50.978;7.034;2023-04-28T00:28:51;12.00;1.00
31597;DHT22;18201;50.978;7.034;2023-04-28T00:29:21;12.00;1.00
31597;DHT22;18201;50.978;7.034;2023-04-28T00:29:53;12.10;21.60
31597;DHT22;18201;50.978;7.034;2023-04-28T00:30:25;12.10;99.90
31597;DHT22;18201;50.978;7.034;2023-04-28T00:30:55;12.00;99.90
31597;DHT22;18201;50.978;7.034;2023-04-28T00:31:26;12.10;59.60
31597;DHT22;18201;50.978;7.034;2023-04-28T00:31:58;12.10;99.90
31597;DHT22;18201;50.978;7.034;2023-04-28T00:32:29;12.00;99.90
31597;DHT22;18201;50.978;7.034;2023-04-28T00:33:00;12.00;99.90
31597;DHT22;18201;50.978;7.034;2023-04-28T00:33:31;12.00;99.90
31597;DHT22;18201;50.978;7.034;2023-04-28T00:34:03;12.00;99.90
31597;DHT22;18201;50.978;7.034;2023-04-28T00:34:34;12.00;99.90
31597;DHT22;18201;50.978;7.034;2023-04-28T00:35:07;12.00;99.90
31597;DHT22;18201;50.978;7.034;2023-04-28T00:35:39;12.00;99.90
31597;DHT22;18201;50.978;7.034;2023-04-28T00:36:11;12.00;99.90
31597;DHT22;18201;50.978;7.034;2023-04-28T00:36:42;12.00;99.90
31597;DHT22;18201;50.978;7.034;2023-04-28T00:37:14;12.00;1.00
31597;DHT22;18201;50.978;7.034;2023-04-28T00:37:45;12.00;99.90
31597;DHT22;18201;50.978;7.034;2023-04-28T00:38:16;12.00;99.90
31597;DHT22;18201;50.978;7.034;2023-04-28T00:38:47;12.00;74.90
31597;DHT22;18201;50.978;7.034;2023-04-28T00:39:20;12.00;42.20
31597;DHT22;18201;50.978;7.034;2023-04-28T00:39:55;12.00;1.00
31597;DHT22;18201;50.978;7.034;2023-04-28T00:40:32;12.00;99.90
31597;DHT22;18201;50.978;7.034;2023-04-28T00:41:04;12.00;1.00
31597;DHT22;18201;50.978;7.034;2023-04-28T00:41:35;12.00;99.90
31597;DHT22;18201;50.978;7.034;2023-04-28T00:42:06;12.00;1.00
31597;DHT22;18201;50.978;7.034;2023-04-28T00:42:38;12.00;67.40
31597;DHT22;18201;50.978;7.034;2023-04-28T00:43:09;12.00;34.90
31597;DHT22;18201;50.978;7.034;2023-04-28T00:43:44;12.00;1.00
31597;DHT22;18201;50.978;7.034;2023-04-28T00:44:15;12.00;99.90
31597;DHT22;18201;50.978;7.034;2023-04-28T00:44:47;12.00;99.90
31597;DHT22;18201;50.978;7.034;2023-04-28T00:45:17;12.00;99.90
31597;DHT22;18201;50.978;7.034;2023-04-28T00:45:49;12.00;99.90
31597;DHT22;18201;50.978;7.034;2023-04-28T00:46:24;11.90;99.90
31597;DHT22;18201;50.978;7.034;2023-04-28T00:46:57;11.90;99.90
31597;DHT22;18201;50.978;7.034;2023-04-28T00:47:28;11.90;99.90
31597;DHT22;18201;50.978;7.034;2023-04-28T00:48:01;11.90;99.90
31597;DHT22;18201;50.978;7.034;2023-04-28T00:48:32;11.90;99.90
31597;DHT22;18201;50.978;7.034;2023-04-28T00:49:03;11.90;99.90
31597;DHT22;18201;50.978;7.034;2023-04-28T00:49:35;11.90;99.90
31597;DHT22;18201;50.978;7.034;2023-04-28T00:50:07;11.90;1.00
31597;DHT22;18201;50.978;7.034;2023-04-28T00:50:40;11.90;1.00
31597;DHT22;18201;50.978;7.034;2023-04-28T00:51:12;11.90;1.00
31597;DHT22;18201;50.978;7.034;2023-04-28T00:51:44;11.90;5.80
31597;DHT22;18201;50.978;7.034;2023-04-28T00:52:15;11.90;99.90
31597;DHT22;18201;50.978;7.034;2023-04-28T00:52:46;11.90;39.20
31597;DHT22;18201;50.978;7.034;2023-04-28T00:53:18;11.90;30.40
31597;DHT22;18201;50.978;7.034;2023-04-28T00:53:50;11.90;24.50
31597;DHT22;18201;50.978;7.034;2023-04-28T00:54:22;11.90;99.90
31597;DHT22;18201;50.978;7.034;2023-04-28T00:54:53;11.80;99.90
31597;DHT22;18201;50.978;7.034;2023-04-28T00:55:27;11.80;1.00
31597;DHT22;18201;50.978;7.034;2023-04-28T00:56:01;11.80;34.60
31597;DHT22;18201;50.978;7.034;2023-04-28T00:56:33;11.90;99.90
31597;DHT22;18201;50.978;7.034;2023-04-28T00:57:04;11.80;1.00
31597;DHT22;18201;50.978;7.034;2023-04-28T00:57:36;11.80;99.90
31597;DHT22;18201;50.978;7.034;2023-04-28T00:58:07;11.80;99.90
31597;DHT22;18201;50.978;7.034;2023-04-28T00:58:39;11.80;99.90
31597;DHT22;18201;50.978;7.034;2023-04-28T00:59:11;11.80;99.90
31597;DHT22;18201;50.978;7.034;2023-04-28T00:59:42;11.80;99.90
31597;DHT22;18201;50.978;7.034;2023-04-28T01:00:14;11.80;99.90
31597;DHT22;18201;50.978;7.034;2023-04-28T01:00:45;11.80;99.90
31597;DHT22;18201;50.978;7.034;2023-04-28T01:01:17;11.80;99.90
31597;DHT22;18201;50.978;7.034;2023-04-28T01:01:49;11.80;99.90
31597;DHT22;18201;50.978;7.034;2023-04-28T01:02:20;11.90;99.90
31597;DHT22;18201;50.978;7.034;2023-04-28T01:02:51;11.90;99.90
31597;DHT22;18201;50.978;7.034;2023-04-28T01:03:24;11.90;99.90
31597;DHT22;18201;50.978;7.034;2023-04-28T01:03:55;11.90;99.90
31597;DHT22;18201;50.978;7.034;2023-04-28T01:04:26;11.90;99.90
31597;DHT22;18201;50.978;7.034;2023-04-28T01:04:58;11.90;99.90
31597;DHT22;18201;50.978;7.034;2023-04-28T01:05:31;11.90;99.90
31597;DHT22;18201;50.978;7.034;2023-04-28T01:06:03;11.90;99.90
31597;DHT22;18201;50.978;7.034;2023-04-28T01:06:35;11.90;99.90
31597;DHT22;18201;50.978;7.034;2023-04-28T01:07:07;11.90;1.00
31597;DHT22;18201;50.978;7.034;2023-04-28T01:07:38;11.90;1.00
31597;DHT22;18201;50.978;7.034;2023-04-28T01:08:09;11.90;1.00
31597;DHT22;18201;50.978;7.034;2023-04-28T01:08:41;11.90;99.90
31597;DHT22;18201;50.978;7.034;2023-04-28T01:09:13;11.90;99.90
31597;DHT22;18201;50.978;7.034;2023-04-28T01:09:45;11.90;99.90
31597;DHT22;18201;50.978;7.034;2023-04-28T01:10:18;11.90;99.90
31597;DHT22;18201;50.978;7.034;2023-04-28T01:10:50;11.90;99.90
31597;DHT22;18201;50.978;7.034;2023-04-28T01:11:21;11.90;99.90
31597;DHT22;18201;50.978;7.034;2023-04-28T01:11:51;11.90;99.90
31597;DHT22;18201;50.978;7.034;2023-04-28T01:12:23;11.90;99.90
31597;DHT22;18201;50.978;7.034;2023-04-28T01:12:54;11.90;90.90
31597;DHT22;18201;50.978;7.034;2023-04-28T01:13:25;11.90;1.00
31597;DHT22;18201;50.978;7.034;2023-04-28T01:13:57;11.90;1.00
31597;DHT22;18201;50.978;7.034;2023-04-28T01:14:29;11.90;1.00
31597;DHT22;18201;50.978;7.034;2023-04-28T01:15:00;11.90;1.00
31597;DHT22;18201;50.978;7.034;2023-04-28T01:15:32;11.90;1.00
31597;DHT22;18201;50.978;7.034;2023-04-28T01:16:04;11.90;99.90
31597;DHT22;18201;50.978;7.034;2023-04-28T01:16:37;11.90;99.90
31597;DHT22;18201;50.978;7.034;2023-04-28T01:17:09;11.90;64.40
31597;DHT22;18201;50.978;7.034;2023-04-28T01:17:40;11.90;24.00
31597;DHT22;18201;50.978;7.034;2023-04-28T01:18:11;11.90;1.00
31597;DHT22;18201;50.978;7.034;2023-04-28T01:18:46;11.90;1.00
31597;DHT22;18201;50.978;7.034;2023-04-28T01:19:20;11.80;49.00
31597;DHT22;18201;50.978;7.034;2023-04-28T01:19:51;11.80;99.90
31597;DHT22;18201;50.978;7.034;2023-04-28T01:20:23;11.80;89.50
31597;DHT22;18201;50.978;7.034;2023-04-28T01:20:54;11.70;99.90
31597;DHT22;18201;50.978;7.034;2023-04-28T01:21:25;11.70;99.90
31597;DHT22;18201;50.978;7.034;2023-04-28T01:21:58;11.60;99.90
31597;DHT22;18201;50.978;7.034;2023-04-28T01:22:30;11.60;99.90
31597;DHT22;18201;50.978;7.034;2023-04-28T01:23:01;11.50;99.90
31597;DHT22;18201;50.978;7.034;2023-04-28T01:23:33;11.50;99.90
31597;DHT22;18201;50.978;7.034;2023-04-28T01:24:06;11.50;99.90
31597;DHT22;18201;50.978;7.034;2023-04-28T01:24:38;11.40;1.00
31597;DHT22;18201;50.978;7.034;2023-04-28T01:25:09;11.40;1.00
31597;DHT22;18201;50.978;7.034;2023-04-28T01:25:40;11.30;1.00
31597;DHT22;18201;50.978;7.034;2023-04-28T01:26:14;11.30;1.00
31597;DHT22;18201;50.978;7.034;2023-04-28T01:26:45;11.30;1.00
31597;DHT22;18201;50.978;7.034;2023-04-28T01:27:16;11.20;1.00
31597;DHT22;18201;50.978;7.034;2023-04-28T01:27:47;11.20;1.00
31597;DHT22;18201;50.978;7.034;2023-04-28T01:28:18;11.20;1.00
31597;DHT22;18201;50.978;7.034;2023-04-28T01:28:49;11.10;1.00
31597;DHT22;18201;50.978;7.034;2023-04-28T01:29:20;11.10;1.00
31597;DHT22;18201;50.978;7.034;2023-04-28T01:29:52;11.10;1.00
31597;DHT22;18201;50.978;7.034;2023-04-28T01:30:23;11.00;7.70
31597;DHT22;18201;50.978;7.034;2023-04-28T01:30:53;11.00;47.70
31597;DHT22;18201;50.978;7.034;2023-04-28T01:31:26;10.90;69.60
31597;DHT22;18201;50.978;7.034;2023-04-28T01:31:57;10.90;89.70
31597;DHT22;18201;50.978;7.034;2023-04-28T01:32:27;10.90;99.90
31597;DHT22;18201;50.978;7.034;2023-04-28T01:33:00;10.80;99.90
31597;DHT22;18201;50.978;7.034;2023-04-28T01:33:30;10.80;99.90
31597;DHT22;18201;50.978;7.034;2023-04-28T01:34:01;10.80;99.90
31597;DHT22;18201;50.978;7.034;2023-04-28T01:34:32;10.80;99.90
31597;DHT22;18201;50.978;7.034;2023-04-28T01:35:05;10.80;99.90
31597;DHT22;18201;50.978;7.034;2023-04-28T01:35:36;10.70;99.90
31597;DHT22;18201;50.978;7.034;2023-04-28T01:36:07;10.70;99.90
31597;DHT22;18201;50.978;7.034;2023-04-28T01:36:39;10.70;99.90
31597;DHT22;18201;50.978;7.034;2023-04-28T01:37:10;10.70;99.90
31597;DHT22;18201;50.978;7.034;2023-04-28T01:37:41;10.70;99.90
31597;DHT22;18201;50.978;7.034;2023-04-28T01:38:12;10.70;99.90
31597;DHT22;18201;50.978;7.034;2023-04-28T01:38:43;10.70;99.90
31597;DHT22;18201;50.978;7.034;2023-04-28T01:39:16;10.60;99.90
31597;DHT22;18201;50.978;7.034;2023-04-28T01:39:47;10.60;99.90
31597;DHT22;18201;50.978;7.034;2023-04-28T01:40:18;10.60;99.90
31597;DHT22;18201;50.978;7.034;2023-04-28T01:40:50;10.60;99.90
31597;DHT22;18201;50.978;7.034;2023-04-28T01:41:21;10.60;99.90
31597;DHT22;18201;50.978;7.034;2023-04-28T01:41:52;10.60;99.90
31597;DHT22;18201;50.978;7.034;2023-04-28T01:42:23;10.60;99.90
31597;DHT22;18201;50.978;7.034;2023-04-28T01:42:54;10.60;99.90
31597;DHT22;18201;50.978;7.034;2023-04-28T01:43:25;10.50;99.90
31597;DHT22;18201;50.978;7.034;2023-04-28T01:43:57;10.60;99.90
31597;DHT22;18201;50.978;7.034;2023-04-28T01:44:28;10.50;99.90
31597;DHT22;18201;50.978;7.034;2023-04-28T01:44:59;10.50;99.90
31597;DHT22;18201;50.978;7.034;2023-04-28T01:45:32;10.50;99.90
31597;DHT22;18201;50.978;7.034;2023-04-28T01:46:03;10.50;99.90
31597;DHT22;18201;50.978;7.034;2023-04-28T01:46:34;10.50;99.90
31597;DHT22;18201;50.978;7.034;2023-04-28T01:47:06;10.50;99.90
31597;DHT22;18201;50.978;7.034;2023-04-28T01:47:38;10.50;99.90
31597;DHT22;18201;50.978;7.034;2023-04-28T01:48:08;10.50;99.90
31597;DHT22;18201;50.978;7.034;2023-04-28T01:48:39;10.50;99.90
31597;DHT22;18201;50.978;7.034;2023-04-28T01:49:10;10.50;99.90
31597;DHT22;18201;50.978;7.034;2023-04-28T01:49:42;10.50;99.90
31597;DHT22;18201;50.978;7.034;2023-04-28T01:50:13;10.50;99.90
31597;DHT22;18201;50.978;7.034;2023-04-28T01:50:44;10.50;99.90
31597;DHT22;18201;50.978;7.034;2023-04-28T01:51:14;10.40;99.90
31597;DHT22;18201;50.978;7.034;2023-04-28T01:51:46;10.40;99.90
31597;DHT22;18201;50.978;7.034;2023-04-28T01:52:17;10.50;99.90
31597;DHT22;18201;50.978;7.034;2023-04-28T01:52:49;10.40;99.90
31597;DHT22;18201;50.978;7.034;2023-04-28T01:53:40;10.40;99.90
31597;DHT22;18201;50.978;7.034;2023-04-28T01:54:10;10.40;99.90
31597;DHT22;18201;50.978;7.034;2023-04-28T01:54:44;10.40;99.90
31597;DHT22;18201;50.978;7.034;2023-04-28T01:55:42;10.40;99.90
31597;DHT22;18201;50.978;7.034;2023-04-28T01:56:14;10.40;99.90
31597;DHT22;18201;50.978;7.034;2023-04-28T01:56:45;10.40;99.90
31597;DHT22;18201;50.978;7.034;2023-04-28T01:57:16;10.40;99.90
31597;DHT22;18201;50.978;7.034;2023-04-28T01:57:47;10.30;99.90
31597;DHT22;18201;50.978;7.034;2023-04-28T01:58:18;10.30;99.90
31597;DHT22;18201;50.978;7.034;2023-04-28T01:58:49;10.30;99.90
31597;DHT22;18201;50.978;7.034;2023-04-28T01:59:21;10.30;99.90
31597;DHT22;18201;50.978;7.034;2023-04-28T01:59:53;10.30;99.90
31597;DHT22;18201;50.978;7.034;2023-04-28T02:00:23;10.30;99.90
31597;DHT22;18201;50.978;7.034;2023-04-28T02:00:54;10.30;99.90
31597;DHT22;18201;50.978;7.034;2023-04-28T02:01:26;10.30;99.90
31597;DHT22;18201;50.978;7.034;2023-04-28T02:01:57;10.30;99.90
31597;DHT22;18201;50.978;7.034;2023-04-28T02:02:28;10.30;99.90
31597;DHT22;18201;50.978;7.034;2023-04-28T02:03:00;10.20;99.90
31597;DHT22;18201;50.978;7.034;2023-04-28T02:03:31;10.20;99.90
31597;DHT22;18201;50.978;7.034;2023-04-28T02:04:02;10.20;99.90
31597;DHT22;18201;50.978;7.034;2023-04-28T02:04:32;10.30;99.90
31597;DHT22;18201;50.978;7.034;2023-04-28T02:05:05;10.20;99.90
31597;DHT22;18201;50.978;7.034;2023-04-28T02:05:36;10.20;99.90
31597;DHT22;18201;50.978;7.034;2023-04-28T02:06:08;10.20;99.90
31597;DHT22;18201;50.978;7.034;2023-04-28T02:06:38;10.20;99.90
31597;DHT22;18201;50.978;7.034;2023-04-28T02:07:10;10.20;99.90
31597;DHT22;18201;50.978;7.034;2023-04-28T02:07:41;10.20;99.90
31597;DHT22;18201;50.978;7.034;2023-04-28T02:08:12;10.20;99.90
31597;DHT22;18201;50.978;7.034;2023-04-28T02:08:43;10.20;99.90
31597;DHT22;18201;50.978;7.034;2023-04-28T02:09:15;10.20;99.90
31597;DHT22;18201;50.978;7.034;2023-04-28T02:09:47;10.20;99.90
31597;DHT22;18201;50.978;7.034;2023-04-28T02:10:18;10.20;99.90
31597;DHT22;18201;50.978;7.034;2023-04-28T02:10:49;10.20;99.90
31597;DHT22;18201;50.978;7.034;2023-04-28T02:11:21;10.20;99.90
31597;DHT22;18201;50.978;7.034;2023-04-28T02:11:52;10.30;99.90
31597;DHT22;18201;50.978;7.034;2023-04-28T02:12:22;10.20;99.90
31597;DHT22;18201;50.978;7.034;2023-04-28T02:12:54;10.30;99.90
31597;DHT22;18201;50.978;7.034;2023-04-28T02:13:25;10.20;99.90
31597;DHT22;18201;50.978;7.034;2023-04-28T02:13:56;10.20;99.90
31597;DHT22;18201;50.978;7.034;2023-04-28T02:14:28;10.20;99.90
31597;DHT22;18201;50.978;7.034;2023-04-28T02:15:01;10.20;99.90
31597;DHT22;18201;50.978;7.034;2023-04-28T02:15:32;10.20;99.90
31597;DHT22;18201;50.978;7.034;2023-04-28T02:16:05;10.20;99.90
31597;DHT22;18201;50.978;7.034;2023-04-28T02:16:36;10.20;99.90
31597;DHT22;18201;50.978;7.034;2023-04-28T02:17:07;10.20;99.90
31597;DHT22;18201;50.978;7.034;2023-04-28T02:17:38;10.20;99.90
31597;DHT22;18201;50.978;7.034;2023-04-28T02:18:10;10.20;99.90
31597;DHT22;18201;50.978;7.034;2023-04-28T02:18:40;10.20;99.90
31597;DHT22;18201;50.978;7.034;2023-04-28T02:19:11;10.20;99.90
31597;DHT22;18201;50.978;7.034;2023-04-28T02:19:43;10.20;99.90
31597;DHT22;18201;50.978;7.034;2023-04-28T02:20:14;10.20;99.90
31597;DHT22;18201;50.978;7.034;2023-04-28T02:20:45;10.20;99.90
31597;DHT22;18201;50.978;7.034;2023-04-28T02:21:16;10.20;99.90
31597;DHT22;18201;50.978;7.034;2023-04-28T02:21:48;10.20;99.90
31597;DHT22;18201;50.978;7.034;2023-04-28T02:22:19;10.20;99.90
31597;DHT22;18201;50.978;7.034;2023-04-28T02:22:49;10.20;99.90
31597;DHT22;18201;50.978;7.034;2023-04-28T02:23:20;10.20;99.90
31597;DHT22;18201;50.978;7.034;2023-04-28T02:23:52;10.20;99.90
31597;DHT22;18201;50.978;7.034;2023-04-28T02:24:23;10.20;99.90
31597;DHT22;18201;50.978;7.034;2023-04-28T02:24:56;10.20;99.90
31597;DHT22;18201;50.978;7.034;2023-04-28T02:25:27;10.20;99.90
31597;DHT22;18201;50.978;7.034;2023-04-28T02:26:00;10.20;99.90
31597;DHT22;18201;50.978;7.034;2023-04-28T02:26:32;10.20;99.90
31597;DHT22;18201;50.978;7.034;2023-04-28T02:27:03;10.30;99.90
31597;DHT22;18201;50.978;7.034;2023-04-28T02:27:34;10.30;99.90
31597;DHT22;18201;50.978;7.034;2023-04-28T02:28:07;10.30;99.90
31597;DHT22;18201;50.978;7.034;2023-04-28T02:28:38;10.30;99.90
31597;DHT22;18201;50.978;7.034;2023-04-28T02:29:09;10.30;99.90
31597;DHT22;18201;50.978;7.034;2023-04-28T02:29:40;10.30;99.90
31597;DHT22;18201;50.978;7.034;2023-04-28T02:30:12;10.30;99.90
31597;DHT22;18201;50.978;7.034;2023-04-28T02:30:43;10.30;99.90
31597;DHT22;18201;50.978;7.034;2023-04-28T02:31:14;10.30;99.90
31597;DHT22;18201;50.978;7.034;2023-04-28T02:31:45;10.30;99.90
31597;DHT22;18201;50.978;7.034;2023-04-28T02:32:17;10.30;99.90
31597;DHT22;18201;50.978;7.034;2023-04-28T02:32:48;10.40;99.90
31597;DHT22;18201;50.978;7.034;2023-04-28T02:33:19;10.30;99.90
31597;DHT22;18201;50.978;7.034;2023-04-28T02:33:50;10.40;99.90
31597;DHT22;18201;50.978;7.034;2023-04-28T02:34:22;10.40;99.90
31597;DHT22;18201;50.978;7.034;2023-04-28T02:34:53;10.40;99.90
31597;DHT22;18201;50.978;7.034;2023-04-28T02:35:24;10.40;99.90
31597;DHT22;18201;50.978;7.034;2023-04-28T02:35:58;10.40;99.90
31597;DHT22;18201;50.978;7.034;2023-04-28T02:36:29;10.40;99.90
31597;DHT22;18201;50.978;7.034;2023-04-28T02:36:59;10.30;99.90
31597;DHT22;18201;50.978;7.034;2023-04-28T02:37:31;10.30;99.90
31597;DHT22;18201;50.978;7.034;2023-04-28T02:38:02;10.40;99.90
31597;DHT22;18201;50.978;7.034;2023-04-28T02:38:33;10.30;99.90
31597;DHT22;18201;50.978;7.034;2023-04-28T02:39:05;10.40;99.90
31597;DHT22;18201;50.978;7.034;2023-04-28T02:39:36;10.40;99.90
31597;DHT22;18201;50.978;7.034;2023-04-28T02:40:09;10.40;99.90
31597;DHT22;18201;50.978;7.034;2023-04-28T02:40:40;10.40;99.90
31597;DHT22;18201;50.978;7.034;2023-04-28T02:41:12;10.40;99.90
31597;DHT22;18201;50.978;7.034;2023-04-28T02:41:44;10.30;99.90
31597;DHT22;18201;50.978;7.034;2023-04-28T02:42:15;10.30;99.90
31597;DHT22;18201;50.978;7.034;2023-04-28T02:42:47;10.30;99.90
31597;DHT22;18201;50.978;7.034;2023-04-28T02:43:18;10.30;99.90
31597;DHT22;18201;50.978;7.034;2023-04-28T02:43:49;10.30;99.90
31597;DHT22;18201;50.978;7.034;2023-04-28T02:44:21;10.30;99.90
31597;DHT22;18201;50.978;7.034;2023-04-28T02:44:52;10.30;99.90
31597;DHT22;18201;50.978;7.034;2023-04-28T02:45:23;10.30;99.90
31597;DHT22;18201;50.978;7.034;2023-04-28T02:45:55;10.40;99.90
31597;DHT22;18201;50.978;7.034;2023-04-28T02:46:26;10.30;99.90
31597;DHT22;18201;50.978;7.034;2023-04-28T02:46:57;10.30;99.90
31597;DHT22;18201;50.978;7.034;2023-04-28T02:47:31;10.30;99.90
31597;DHT22;18201;50.978;7.034;2023-04-28T02:48:02;10.30;99.90
31597;DHT22;18201;50.978;7.034;2023-04-28T02:48:34;10.30;99.90
31597;DHT22;18201;50.978;7.034;2023-04-28T02:49:06;10.20;99.90
31597;DHT22;18201;50.978;7.034;2023-04-28T02:49:38;10.20;99.90
31597;DHT22;18201;50.978;7.034;2023-04-28T02:50:09;10.20;99.90
31597;DHT22;18201;50.978;7.034;2023-04-28T02:50:40;10.20;99.90
31597;DHT22;18201;50.978;7.034;2023-04-28T02:51:11;10.20;99.90
31597;DHT22;18201;50.978;7.034;2023-04-28T02:51:43;10.20;99.90
31597;DHT22;18201;50.978;7.034;2023-04-28T02:52:14;10.20;99.90
31597;DHT22;18201;50.978;7.034;2023-04-28T02:52:45;10.20;99.90
31597;DHT22;18201;50.978;7.034;2023-04-28T02:53:16;10.20;99.90
31597;DHT22;18201;50.978;7.034;2023-04-28T02:53:48;10.20;99.90
31597;DHT22;18201;50.978;7.034;2023-04-28T02:54:19;10.20;99.90
31597;DHT22;18201;50.978;7.034;2023-04-28T02:54:56;10.20;99.90
31597;DHT22;18201;50.978;7.034;2023-04-28T02:55:30;10.20;99.90
31597;DHT22;18201;50.978;7.034;2023-04-28T02:56:01;10.20;99.90
31597;DHT22;18201;50.978;7.034;2023-04-28T02:56:34;10.20;99.90
31597;DHT22;18201;50.978;7.034;2023-04-28T02:57:06;10.20;99.90
31597;DHT22;18201;50.978;7.034;2023-04-28T02:57:37;10.20;99.90
31597;DHT22;18201;50.978;7.034;2023-04-28T02:58:08;10.20;99.90
31597;DHT22;18201;50.978;7.034;2023-04-28T02:58:40;10.20;99.90
31597;DHT22;18201;50.978;7.034;2023-04-28T02:59:10;10.20;99.90
31597;DHT22;18201;50.978;7.034;2023-04-28T02:59:41;10.20;99.90
31597;DHT22;18201;50.978;7.034;2023-04-28T03:00:14;10.20;99.90
31597;DHT22;18201;50.978;7.034;2023-04-28T03:00:46;10.20;99.90
31597;DHT22;18201;50.978;7.034;2023-04-28T03:01:17;10.10;99.90
31597;DHT22;18201;50.978;7.034;2023-04-28T03:01:49;10.20;99.90
31597;DHT22;18201;50.978;7.034;2023-04-28T03:02:21;10.20;99.90
31597;DHT22;18201;50.978;7.034;2023-04-28T03:02:52;10.20;99.90
31597;DHT22;18201;50.978;7.034;2023-04-28T03:03:24;10.20;99.90
31597;DHT22;18201;50.978;7.034;2023-04-28T03:03:56;10.20;99.90
31597;DHT22;18201;50.978;7.034;2023-04-28T03:04:27;10.10;99.90
31597;DHT22;18201;50.978;7.034;2023-04-28T03:04:57;10.10;99.90
31597;DHT22;18201;50.978;7.034;2023-04-28T03:05:29;10.10;99.90
31597;DHT22;18201;50.978;7.034;2023-04-28T03:06:00;10.10;99.90
31597;DHT22;18201;50.978;7.034;2023-04-28T03:06:31;10.10;99.90
31597;DHT22;18201;50.978;7.034;2023-04-28T03:07:02;10.10;99.90
31597;DHT22;18201;50.978;7.034;2023-04-28T03:07:34;10.10;99.90
31597;DHT22;18201;50.978;7.034;2023-04-28T03:08:05;10.10;99.90
31597;DHT22;18201;50.978;7.034;2023-04-28T03:08:36;10.10;99.90
31597;DHT22;18201;50.978;7.034;2023-04-28T03:09:07;10.10;99.90
31597;DHT22;18201;50.978;7.034;2023-04-28T03:09:40;10.10;99.90
31597;DHT22;18201;50.978;7.034;2023-04-28T03:10:11;10.10;99.90
31597;DHT22;18201;50.978;7.034;2023-04-28T03:10:43;10.10;99.90
31597;DHT22;18201;50.978;7.034;2023-04-28T03:11:15;10.00;99.90
31597;DHT22;18201;50.978;7.034;2023-04-28T03:11:46;10.10;99.90
31597;DHT22;18201;50.978;7.034;2023-04-28T03:12:17;10.10;99.90
31597;DHT22;18201;50.978;7.034;2023-04-28T03:12:49;10.10;99.90
31597;DHT22;18201;50.978;7.034;2023-04-28T03:13:19;10.10;99.90
31597;DHT22;18201;50.978;7.034;2023-04-28T03:13:50;10.00;99.90
31597;DHT22;18201;50.978;7.034;2023-04-28T03:14:22;10.00;99.90
31597;DHT22;18201;50.978;7.034;2023-04-28T03:14:53;10.00;99.90
31597;DHT22;18201;50.978;7.034;2023-04-28T03:15:24;10.00;99.90
31597;DHT22;18201;50.978;7.034;2023-04-28T03:15:55;10.00;99.90
31597;DHT22;18201;50.978;7.034;2023-04-28T03:16:27;10.10;99.90
31597;DHT22;18201;50.978;7.034;2023-04-28T03:16:57;10.00;99.90
31597;DHT22;18201;50.978;7.034;2023-04-28T03:17:28;10.10;99.90
31597;DHT22;18201;50.978;7.034;2023-04-28T03:18:01;10.10;99.90
31597;DHT22;18201;50.978;7.034;2023-04-28T03:18:31;10.10;99.90
31597;DHT22;18201;50.978;7.034;2023-04-28T03:19:02;10.00;99.90
31597;DHT22;18201;50.978;7.034;2023-04-28T03:19:34;10.00;99.90
31597;DHT22;18201;50.978;7.034;2023-04-28T03:20:07;10.00;99.90